KIDA/IDA METAR and TAF weather

Enter ICAO airport designator
Station Type Date Time Source
KIDA METAR 2019/11/14 03:53 UTC NOAA

KIDA 140353Z AUTO 00000KT 10SM CLR M03/M07 A3017 RMK AO2 SLP249 T10281072


Station Type Date Time Source
KIDA Decoded METAR 2019/11/14 03:53 UTC NOAA

IDAHO FALLS REGIONAL AIRPORT, ID, United States (KIDA) 43-31N 112-04W 1453M
Nov 13, 2019 - 10:53 PM EST / 2019.11.14 0353 UTC
Wind: Calm:0
Visibility: 10 mile(s):0
Sky conditions: clear
Temperature: 27.0 F (-2.8 C)
Dew Point: 19.0 F (-7.2 C)
Relative Humidity: 71%
Pressure (altimeter): 30.17 in. Hg (1021 hPa)
ob: KIDA 140353Z AUTO 00000KT 10SM CLR M03/M07 A3017 RMK AO2 SLP249 T10281072
cycle: 4

Station Type Date Time Source
KIDA TAF 2019/11/13 18:22 UTC NOAA

TAF KIDA 131720Z 1318/1418 24006KT P6SM FEW035 SCT150
FM140300 01005KT P6SM SCT150

Example: see airport list